Time;durP1;ratioP1;P1;durP2;ratioP2;P2;SDS_P1;SDS_P2;PMS_P1;PMS_P2;Temp;Humidity;BMP_temperature;BMP_pressure;BME280_temperature;BME280_humidity;BME280_pressure;Samples;Min_cycle;Max_cycle;Signal;HPM_P1;HPM_P2
2023/12/06 00:01:10;;;;;;;73.00;28.40;;;;;;;-3.12;100.00;97842.25;3141152;23;20022;-96
2023/12/06 00:02:27;;;;;;;75.78;30.55;;;;;;;-3.24;100.00;97844.63;3145569;23;20018;-96
2023/12/06 00:03:43;;;;;;;77.32;31.92;;;;;;;-3.18;100.00;97844.69;3141194;23;20070;-96
2023/12/06 00:04:59;;;;;;;83.10;32.92;;;;;;;-3.18;100.00;97842.16;3145845;23;20022;-93
2023/12/06 00:06:15;;;;;;;82.78;32.85;;;;;;;-3.22;100.00;97844.63;3140198;23;20026;-94
2023/12/06 00:07:31;;;;;;;79.75;33.38;;;;;;;-3.17;100.00;97840.47;3140642;23;20025;-94
2023/12/06 00:08:48;;;;;;;77.68;33.30;;;;;;;-3.28;100.00;97840.28;3148864;23;20475;-95
2023/12/06 00:10:04;;;;;;;74.05;31.40;;;;;;;-3.32;100.00;97839.38;3156224;23;20030;-93
2023/12/06 00:11:20;;;;;;;77.97;31.40;;;;;;;-3.44;100.00;97845.09;3149430;23;20022;-94
2023/12/06 00:12:36;;;;;;;83.28;33.30;;;;;;;-3.42;100.00;97843.47;3140591;23;20026;-94
2023/12/06 00:13:52;;;;;;;69.00;30.42;;;;;;;-3.38;100.00;97843.50;3141518;23;20038;-94
2023/12/06 00:15:08;;;;;;;75.50;31.17;;;;;;;-3.49;100.00;97850.97;3141294;23;20019;-96
2023/12/06 00:16:24;;;;;;;78.05;31.23;;;;;;;-3.64;100.00;97839.63;3156985;23;20014;-94
2023/12/06 00:17:40;;;;;;;74.20;31.60;;;;;;;-3.47;100.00;97845.06;3150833;23;20018;-95
2023/12/06 00:18:55;;;;;;;76.45;31.13;;;;;;;-3.54;100.00;97843.22;3141394;23;20026;-94
2023/12/06 00:20:11;;;;;;;68.70;29.83;;;;;;;-3.49;100.00;97848.41;3150889;23;20099;-95
2023/12/06 00:21:27;;;;;;;75.93;30.02;;;;;;;-3.46;100.00;97849.34;3141594;23;20033;-94
2023/12/06 00:22:43;;;;;;;69.40;29.17;;;;;;;-3.67;100.00;97848.94;3132019;23;20023;-94
2023/12/06 00:23:59;;;;;;;65.70;28.83;;;;;;;-3.86;100.00;97849.44;3133210;23;20027;-94
2023/12/06 00:25:16;;;;;;;64.68;28.10;;;;;;;-3.79;100.00;97853.00;3127462;23;20026;-95
2023/12/06 00:26:31;;;;;;;64.53;26.75;;;;;;;-3.75;100.00;97859.03;3133734;23;20022;-95
2023/12/06 00:27:47;;;;;;;74.47;28.40;;;;;;;-3.71;100.00;97855.69;3142564;23;20057;-95
2023/12/06 00:29:03;;;;;;;69.68;27.65;;;;;;;-3.71;100.00;97858.25;3142390;23;20026;-93
2023/12/06 00:30:18;;;;;;;71.90;28.17;;;;;;;-3.68;100.00;97855.75;3142455;23;20026;-95
2023/12/06 00:31:34;;;;;;;66.90;28.30;;;;;;;-3.63;100.00;97854.16;3151434;23;20342;-95
2023/12/06 00:32:50;;;;;;;71.47;28.02;;;;;;;-3.73;100.00;97857.38;3142608;23;20023;-95
2023/12/06 00:34:05;;;;;;;67.75;28.63;;;;;;;-3.69;100.00;97859.16;3142052;23;20027;-95
2023/12/06 00:35:21;;;;;;;69.55;27.67;;;;;;;-3.74;100.00;97856.50;3142439;23;20459;-94
2023/12/06 00:36:37;;;;;;;65.85;25.88;;;;;;;-3.81;100.00;97857.22;3141952;23;20026;-94
2023/12/06 00:37:53;;;;;;;61.22;25.83;;;;;;;-3.85;100.00;97853.72;3147155;23;20053;-95
2023/12/06 00:39:08;;;;;;;66.72;27.45;;;;;;;-3.88;100.00;97863.03;3142105;23;20466;-94
2023/12/06 00:40:24;;;;;;;65.90;27.63;;;;;;;-4.00;100.00;97855.97;3142493;23;20018;-95
2023/12/06 00:41:43;;;;;;;66.32;27.17;;;;;;;-4.01;100.00;97857.66;3147758;23;20023;-96
2023/12/06 00:42:59;;;;;;;72.10;29.30;;;;;;;-4.00;100.00;97858.53;3142624;23;20069;-94
2023/12/06 00:44:14;;;;;;;65.85;27.52;;;;;;;-4.01;100.00;97861.94;3141755;23;20057;-96
2023/12/06 00:45:30;;;;;;;74.43;29.13;;;;;;;-3.91;100.00;97863.84;3156437;23;20014;-95
2023/12/06 00:46:46;;;;;;;69.72;26.42;;;;;;;-4.03;100.00;97861.88;3150708;23;20026;-95
2023/12/06 00:48:02;;;;;;;59.90;25.60;;;;;;;-4.53;100.00;97862.53;3142849;23;20030;-95
2023/12/06 00:49:19;;;;;;;70.32;27.95;;;;;;;-4.34;100.00;97858.69;3142708;23;20123;-95
2023/12/06 00:50:34;;;;;;;67.07;28.13;;;;;;;-4.27;100.00;97859.69;3142917;23;20029;-95
2023/12/06 00:51:50;;;;;;;76.55;29.98;;;;;;;-4.16;100.00;97865.91;3143931;23;20022;-95
2023/12/06 00:53:06;;;;;;;68.70;28.23;;;;;;;-4.22;100.00;97859.78;3156786;23;20022;-95
2023/12/06 00:54:21;;;;;;;70.50;28.90;;;;;;;-4.15;100.00;97859.06;3155980;23;20501;-95
2023/12/06 00:55:37;;;;;;;74.60;29.92;;;;;;;-4.11;100.00;97860.88;3143806;23;20109;-95
2023/12/06 00:56:53;;;;;;;64.13;27.38;;;;;;;-4.20;100.00;97858.97;3142997;23;20042;-94
2023/12/06 00:58:08;;;;;;;73.72;28.13;;;;;;;-4.48;100.00;97860.91;3147029;23;20027;-95
2023/12/06 00:59:24;;;;;;;66.78;27.60;;;;;;;-4.28;100.00;97852.84;3142139;23;20022;-95
2023/12/06 01:00:40;;;;;;;76.35;30.63;;;;;;;-4.20;100.00;97860.69;3142367;23;20014;-94
2023/12/06 01:01:56;;;;;;;72.43;29.52;;;;;;;-4.19;100.00;97857.28;3126246;23;20046;-94
2023/12/06 01:03:12;;;;;;;72.43;30.77;;;;;;;-4.19;100.00;97860.72;3141107;23;20022;-95
2023/12/06 01:04:27;;;;;;;69.18;28.50;;;;;;;-4.18;100.00;97862.44;3141314;23;20022;-94
2023/12/06 01:05:43;;;;;;;67.43;26.75;;;;;;;-4.26;100.00;97857.19;3141488;23;20068;-95
2023/12/06 01:06:59;;;;;;;59.80;27.40;;;;;;;-4.13;100.00;97854.84;3126246;23;20023;-94
2023/12/06 01:08:14;;;;;;;66.50;27.48;;;;;;;-4.18;100.00;97859.88;3132726;23;20022;-94
2023/12/06 01:09:30;;;;;;;67.97;27.52;;;;;;;-4.06;100.00;97864.38;3140989;23;20419;-95
2023/12/06 01:10:47;;;;;;;64.57;27.00;;;;;;;-4.03;100.00;97861.88;3141382;23;20023;-94
2023/12/06 01:12:03;;;;;;;67.00;26.25;;;;;;;-4.05;100.00;97861.00;3146218;23;20474;-94
2023/12/06 01:13:20;;;;;;;65.65;26.33;;;;;;;-4.11;100.00;97855.78;3146320;23;20065;-95
2023/12/06 01:14:36;;;;;;;63.90;26.27;;;;;;;-4.21;100.00;97858.97;3141552;23;20077;-94
2023/12/06 01:15:51;;;;;;;63.50;27.30;;;;;;;-4.22;100.00;97858.06;3144178;23;20022;-94
2023/12/06 01:17:07;;;;;;;67.50;25.63;;;;;;;-4.15;100.00;97859.94;3141334;23;20026;-94
2023/12/06 01:18:23;;;;;;;66.70;27.23;;;;;;;-4.18;100.00;97859.00;3141233;23;20065;-95
2023/12/06 01:19:38;;;;;;;63.78;26.13;;;;;;;-4.17;100.00;97861.63;3145900;23;20029;-95
2023/12/06 01:20:54;;;;;;;64.10;26.65;;;;;;;-4.20;100.00;97856.41;3140994;23;20022;-96
2023/12/06 01:22:10;;;;;;;67.13;25.70;;;;;;;-4.20;100.00;97858.97;3141086;23;20069;-95
2023/12/06 01:23:25;;;;;;;60.75;25.33;;;;;;;-4.47;100.00;97861.81;3141191;23;20093;-94
2023/12/06 01:24:41;;;;;;;64.75;26.10;;;;;;;-4.44;100.00;97860.19;3149263;23;20014;-95
2023/12/06 01:25:57;;;;;;;56.47;24.00;;;;;;;-4.41;100.00;97856.81;3126312;23;20050;-96
2023/12/06 01:27:12;;;;;;;63.40;24.48;;;;;;;-4.42;100.00;97861.06;3132046;23;20042;-95
2023/12/06 01:28:28;;;;;;;65.30;25.42;;;;;;;-4.32;100.00;97861.28;3126076;23;20019;-94
2023/12/06 01:29:44;;;;;;;68.75;25.33;;;;;;;-4.30;100.00;97868.13;3132554;23;20042;-95
2023/12/06 01:30:59;;;;;;;59.42;25.73;;;;;;;-4.27;100.00;97867.34;3141346;23;20029;-96
2023/12/06 01:32:15;;;;;;;66.47;26.25;;;;;;;-4.42;100.00;97866.19;3150396;23;20026;-95
2023/12/06 01:33:31;;;;;;;56.88;23.33;;;;;;;-4.48;100.00;97875.41;3140893;23;20026;-94
2023/12/06 01:34:47;;;;;;;56.28;22.73;;;;;;;-4.57;100.00;97863.28;3145972;23;20033;-94
2023/12/06 01:36:02;;;;;;;55.92;22.50;;;;;;;-4.65;100.00;97865.66;3140843;23;20022;-93
2023/12/06 01:37:18;;;;;;;59.85;24.25;;;;;;;-4.71;100.00;97866.38;3140812;23;20077;-94
2023/12/06 01:38:34;;;;;;;59.47;24.17;;;;;;;-4.67;100.00;97862.22;3145935;23;20026;-95
2023/12/06 01:39:49;;;;;;;57.75;22.95;;;;;;;-4.67;100.00;97854.56;3141130;23;20026;-94
2023/12/06 01:41:05;;;;;;;55.05;24.17;;;;;;;-4.64;100.00;97858.84;3141432;23;20037;-94
2023/12/06 01:42:21;;;;;;;60.35;22.95;;;;;;;-4.76;100.00;97859.44;3149834;23;20018;-96
2023/12/06 01:43:37;;;;;;;54.42;21.55;;;;;;;-4.99;100.00;97864.84;3140961;23;20022;-95
2023/12/06 01:44:53;;;;;;;56.92;22.02;;;;;;;-4.82;100.00;97866.13;3141475;23;20018;-95
2023/12/06 01:46:08;;;;;;;52.88;20.33;;;;;;;-4.88;100.00;97871.09;3146641;23;20022;-95
2023/12/06 01:47:27;;;;;;;56.78;23.00;;;;;;;-4.83;100.00;97864.38;3141622;23;20018;-94
2023/12/06 01:48:43;;;;;;;53.13;20.90;;;;;;;-4.92;100.00;97861.63;3141914;23;20019;-94
2023/12/06 01:50:01;;;;;;;53.50;20.67;;;;;;;-4.89;100.00;97859.16;3149887;23;20352;-95
2023/12/06 01:51:18;;;;;;;53.25;22.00;;;;;;;-4.90;100.00;97866.75;3146208;23;20405;-95
2023/12/06 01:52:36;;;;;;;55.28;20.15;;;;;;;-5.21;100.00;97858.34;3140809;23;20502;-94
2023/12/06 01:53:51;;;;;;;51.83;21.15;;;;;;;-5.82;100.00;97867.84;3146158;23;20085;-95
2023/12/06 01:55:08;;;;;;;55.45;21.15;;;;;;;-5.79;100.00;97864.53;3146329;23;20026;-94
2023/12/06 01:56:24;;;;;;;52.10;20.35;;;;;;;-5.64;100.00;97869.16;3141605;23;20029;-94
2023/12/06 01:57:41;;;;;;;50.58;20.40;;;;;;;-5.42;100.00;97862.94;3140906;23;20017;-95
2023/12/06 01:58:58;;;;;;;54.28;20.60;;;;;;;-5.35;100.00;97860.56;3160599;23;20105;-94
2023/12/06 02:00:15;;;;;;;57.13;21.88;;;;;;;-5.22;100.00;97865.16;3149599;23;20077;-93
2023/12/06 02:01:30;;;;;;;50.22;20.05;;;;;;;-5.13;100.00;97865.38;3145738;23;20018;-94
2023/12/06 02:02:46;;;;;;;48.45;20.02;;;;;;;-5.26;100.00;97866.75;3140630;23;20019;-96
2023/12/06 02:04:02;;;;;;;56.47;22.60;;;;;;;-5.45;100.00;97867.09;3140042;23;20014;-95
2023/12/06 02:05:18;;;;;;;51.42;19.83;;;;;;;-5.46;100.00;97862.81;3140635;23;20029;-94
2023/12/06 02:06:34;;;;;;;41.40;18.65;;;;;;;-5.31;100.00;97858.13;3140575;23;20042;-94
2023/12/06 02:07:51;;;;;;;55.42;20.73;;;;;;;-5.10;100.00;97851.81;3126159;23;20023;-94
2023/12/06 02:09:08;;;;;;;56.08;19.98;;;;;;;-5.29;100.00;97853.94;3116819;23;20015;-95
2023/12/06 02:10:24;;;;;;;54.35;20.73;;;;;;;-5.09;100.00;97860.38;3117475;23;20089;-94
2023/12/06 02:11:40;;;;;;;50.80;20.58;;;;;;;-4.96;100.00;97849.59;3131463;23;20014;-95
2023/12/06 02:12:55;;;;;;;54.17;20.67;;;;;;;-5.05;100.00;97851.94;3140273;23;20022;-95
2023/12/06 02:14:11;;;;;;;48.55;20.25;;;;;;;-4.78;100.00;97849.19;3140537;23;20019;-95
2023/12/06 02:15:27;;;;;;;51.40;18.92;;;;;;;-4.93;100.00;97848.81;3140128;23;20022;-93
2023/12/06 02:16:43;;;;;;;53.35;19.50;;;;;;;-4.86;100.00;97853.25;3154332;23;20037;-94
2023/12/06 02:17:59;;;;;;;53.13;20.67;;;;;;;-4.88;100.00;97860.88;3145576;23;20014;-94
2023/12/06 02:19:25;;;;;;;47.40;18.95;;;;;;;-4.63;100.00;97856.34;3140681;23;20023;-94
2023/12/06 02:20:40;;;;;;;51.28;20.88;;;;;;;-4.46;100.00;97848.19;3142766;23;20018;-94
2023/12/06 02:21:57;;;;;;;48.97;18.08;;;;;;;-4.34;100.00;97855.25;3145468;23;20101;-96
2023/12/06 02:23:15;;;;;;;49.63;19.05;;;;;;;-4.42;100.00;97855.97;3125957;23;20051;-95
2023/12/06 02:24:32;;;;;;;46.97;17.13;;;;;;;-4.37;100.00;97852.63;3137652;23;20035;-94
2023/12/06 02:25:48;;;;;;;45.95;18.15;;;;;;;-4.25;100.00;97847.78;3146033;23;20018;-94
2023/12/06 02:27:04;;;;;;;48.10;18.98;;;;;;;-4.17;100.00;97846.28;3155753;23;20712;-94
2023/12/06 02:28:19;;;;;;;46.20;19.45;;;;;;;-4.21;100.00;97851.28;3149639;23;20101;-94
2023/12/06 02:29:37;;;;;;;48.20;18.38;;;;;;;-4.07;100.00;97851.56;3140807;23;20037;-93
2023/12/06 02:30:52;;;;;;;44.40;18.25;;;;;;;-3.98;100.00;97849.19;3145523;23;20083;-94
2023/12/06 02:32:08;;;;;;;42.47;18.73;;;;;;;-4.03;100.00;97849.09;3141262;23;20530;-94
2023/12/06 02:33:26;;;;;;;47.88;18.23;;;;;;;-3.90;100.00;97850.22;3140028;23;20053;-93
2023/12/06 02:34:43;;;;;;;47.92;19.10;;;;;;;-4.05;100.00;97845.66;3140266;23;20026;-95
2023/12/06 02:36:02;;;;;;;49.72;18.65;;;;;;;-3.96;100.00;97844.97;3140435;23;20403;-95
2023/12/06 02:37:22;;;;;;;48.53;20.42;;;;;;;-3.82;100.00;97847.81;3140852;23;20093;-94
2023/12/06 02:38:40;;;;;;;55.15;19.27;;;;;;;-3.78;100.00;97852.16;3156373;23;20028;-93
2023/12/06 02:39:59;;;;;;;45.53;19.27;;;;;;;-3.89;100.00;97840.84;3149511;23;20070;-93
2023/12/06 02:41:17;;;;;;;53.20;20.15;;;;;;;-3.90;100.00;97845.13;3141055;23;20023;-95
2023/12/06 02:42:32;;;;;;;52.22;21.88;;;;;;;-3.83;100.00;97841.84;3141469;23;20029;-94
2023/12/06 02:43:48;;;;;;;50.47;20.45;;;;;;;-4.12;100.00;97837.00;3150634;23;20021;-94
2023/12/06 02:45:04;;;;;;;59.42;22.23;;;;;;;-3.91;100.00;97840.84;3154032;23;20646;-94
2023/12/06 02:46:20;;;;;;;50.80;21.13;;;;;;;-3.84;100.00;97839.25;3143871;23;20081;-94
2023/12/06 02:47:36;;;;;;;51.42;21.77;;;;;;;-3.84;100.00;97835.00;3142059;23;20027;-94
2023/12/06 02:48:51;;;;;;;54.72;22.77;;;;;;;-3.80;100.00;97835.94;3141088;23;20018;-94
2023/12/06 02:50:07;;;;;;;59.03;24.00;;;;;;;-3.76;100.00;97832.59;3161250;23;20028;-95
2023/12/06 02:51:23;;;;;;;57.20;24.88;;;;;;;-3.69;100.00;97831.00;3149243;23;20015;-95
2023/12/06 02:52:42;;;;;;;55.45;23.63;;;;;;;-3.67;100.00;97831.88;3155875;23;20049;-94
2023/12/06 02:53:58;;;;;;;50.75;22.13;;;;;;;-3.77;100.00;97825.75;3149207;23;20034;-95
2023/12/06 02:55:13;;;;;;;50.95;20.70;;;;;;;-4.20;100.00;97825.72;3140299;23;20022;-94
2023/12/06 02:56:29;;;;;;;44.15;18.70;;;;;;;-4.17;100.00;97828.38;3149593;23;20018;-95
2023/12/06 02:57:45;;;;;;;44.47;17.00;;;;;;;-4.53;100.00;97819.09;3155365;23;20026;-93
2023/12/06 02:59:00;;;;;;;47.78;18.92;;;;;;;-4.36;100.00;97819.47;3148958;23;20029;-95
2023/12/06 03:00:16;;;;;;;50.67;18.52;;;;;;;-4.29;100.00;97828.13;3140601;23;20030;-95
2023/12/06 03:01:32;;;;;;;43.67;17.48;;;;;;;-4.14;100.00;97827.56;3141098;23;20089;-95
2023/12/06 03:02:48;;;;;;;45.80;17.52;;;;;;;-4.15;100.00;97829.28;3141194;23;20030;-94
2023/12/06 03:04:05;;;;;;;42.00;17.90;;;;;;;-4.19;100.00;97837.72;3156758;23;20022;-95
2023/12/06 03:05:21;;;;;;;43.53;17.20;;;;;;;-4.29;100.00;97825.56;3150064;23;20048;-94
2023/12/06 03:06:36;;;;;;;46.03;18.60;;;;;;;-4.17;100.00;97833.50;3140147;23;20015;-93
2023/12/06 03:07:52;;;;;;;47.45;18.38;;;;;;;-4.34;100.00;97838.25;3145126;23;20530;-94
2023/12/06 03:09:08;;;;;;;50.40;19.02;;;;;;;-4.29;100.00;97831.53;3125958;23;20023;-93
2023/12/06 03:10:23;;;;;;;43.83;18.42;;;;;;;-4.42;100.00;97832.09;3151281;23;20331;-93
2023/12/06 03:11:39;;;;;;;52.58;19.27;;;;;;;-4.33;100.00;97833.97;3148917;23;20030;-93
2023/12/06 03:12:55;;;;;;;55.78;20.80;;;;;;;-4.53;100.00;97836.97;3140238;23;20613;-94
2023/12/06 03:14:10;;;;;;;60.25;21.75;;;;;;;-4.73;100.00;97832.28;3139734;23;20041;-93
2023/12/06 03:15:26;;;;;;;58.05;22.55;;;;;;;-4.72;100.00;97834.00;3140318;23;20079;-93
2023/12/06 03:16:42;;;;;;;55.50;23.10;;;;;;;-4.56;100.00;97834.34;3155625;23;20021;-94
2023/12/06 03:17:57;;;;;;;62.15;26.30;;;;;;;-4.55;100.00;97830.97;3149208;23;20018;-96
2023/12/06 03:19:13;;;;;;;57.33;24.20;;;;;;;-4.53;100.00;97836.97;3140892;23;20283;-94
2023/12/06 03:20:29;;;;;;;62.17;23.63;;;;;;;-4.63;100.00;97829.91;3150152;23;20665;-94
2023/12/06 03:21:44;;;;;;;57.78;22.60;;;;;;;-4.78;100.00;97833.00;3162066;23;20033;-93
2023/12/06 03:23:00;;;;;;;55.65;22.73;;;;;;;-4.82;100.00;97827.84;3151981;23;20079;-93
2023/12/06 03:24:16;;;;;;;59.17;23.92;;;;;;;-4.79;100.00;97832.13;3141247;23;20530;-93
2023/12/06 03:25:32;;;;;;;58.75;24.25;;;;;;;-4.78;100.00;97831.31;3141666;23;20046;-94
2023/12/06 03:26:47;;;;;;;58.40;23.30;;;;;;;-4.86;100.00;97840.50;3141307;23;20549;-93
2023/12/06 03:28:03;;;;;;;56.45;22.77;;;;;;;-5.04;100.00;97840.91;3156341;23;20037;-94
2023/12/06 03:29:19;;;;;;;50.47;21.90;;;;;;;-5.06;100.00;97843.41;3135314;23;20027;-93
2023/12/06 03:30:34;;;;;;;55.50;22.30;;;;;;;-5.01;100.00;97831.63;3132957;23;20382;-94
2023/12/06 03:31:50;;;;;;;54.95;22.48;;;;;;;-5.28;100.00;97835.25;3146553;23;20588;-94
2023/12/06 03:33:06;;;;;;;58.78;23.48;;;;;;;-5.12;100.00;97833.91;3141161;23;20026;-93
2023/12/06 03:34:21;;;;;;;58.92;23.08;;;;;;;-5.12;100.00;97835.63;3146023;23;20026;-93
2023/12/06 03:35:37;;;;;;;57.83;21.45;;;;;;;-5.41;100.00;97835.75;3141230;23;20066;-93
2023/12/06 03:36:53;;;;;;;56.58;21.08;;;;;;;-5.40;100.00;97837.47;3156868;23;20017;-95
2023/12/06 03:38:08;;;;;;;53.38;20.30;;;;;;;-5.52;100.00;97840.56;3156426;23;20053;-93
2023/12/06 03:39:26;;;;;;;54.00;20.65;;;;;;;-5.34;100.00;97832.50;3146920;23;20090;-95
2023/12/06 03:40:41;;;;;;;50.67;19.77;;;;;;;-5.22;100.00;97837.09;3147272;23;20019;-93
2023/12/06 03:41:57;;;;;;;52.33;20.80;;;;;;;-4.99;100.00;97829.97;3141750;23;20014;-93
2023/12/06 03:43:13;;;;;;;47.35;18.45;;;;;;;-4.99;100.00;97834.22;3141970;23;20745;-93
2023/12/06 03:44:29;;;;;;;55.72;20.55;;;;;;;-5.01;100.00;97834.19;3140767;23;20023;-93
2023/12/06 03:45:44;;;;;;;54.38;20.15;;;;;;;-4.87;100.00;97831.09;3141656;23;20065;-94
2023/12/06 03:47:00;;;;;;;53.88;19.40;;;;;;;-4.97;100.00;97835.97;3141528;23;20452;-94
2023/12/06 03:48:16;;;;;;;51.47;20.33;;;;;;;-4.72;100.00;97821.25;3145949;23;20050;-94
2023/12/06 03:49:31;;;;;;;48.70;19.45;;;;;;;-4.66;100.00;97830.75;3157996;23;20017;-95
2023/12/06 03:50:47;;;;;;;49.38;20.73;;;;;;;-4.68;100.00;97827.25;3137846;23;20042;-95
2023/12/06 03:52:03;;;;;;;57.00;22.90;;;;;;;-4.51;100.00;97830.19;3149050;23;20022;-96
2023/12/06 03:53:18;;;;;;;56.30;21.90;;;;;;;-4.45;100.00;97829.47;3155357;23;20022;-94
2023/12/06 03:54:35;;;;;;;61.25;23.02;;;;;;;-4.44;100.00;97826.09;3140741;23;20432;-96
2023/12/06 03:55:50;;;;;;;56.63;22.45;;;;;;;-4.29;100.00;97823.84;3145918;23;20057;-93
2023/12/06 03:57:06;;;;;;;58.60;22.90;;;;;;;-4.20;100.00;97823.19;3146271;23;20103;-93
2023/12/06 03:58:22;;;;;;;61.50;24.52;;;;;;;-4.16;100.00;97827.56;3142057;23;20022;-96
2023/12/06 03:59:38;;;;;;;66.60;23.98;;;;;;;-4.21;100.00;97831.69;3141857;23;20010;-94
2023/12/06 04:00:55;;;;;;;66.57;24.27;;;;;;;-4.18;100.00;97828.34;3141004;23;20022;-93
2023/12/06 04:02:11;;;;;;;59.38;22.13;;;;;;;-4.43;100.00;97822.69;3141166;23;20344;-93
2023/12/06 04:03:27;;;;;;;62.30;24.15;;;;;;;-4.58;100.00;97823.25;3156224;23;20141;-93
2023/12/06 04:04:44;;;;;;;55.58;22.08;;;;;;;-4.33;100.00;97832.28;3154217;23;20514;-94
2023/12/06 04:06:00;;;;;;;61.88;23.17;;;;;;;-4.44;100.00;97836.31;3140130;23;20030;-96
2023/12/06 04:07:16;;;;;;;54.97;23.85;;;;;;;-4.41;100.00;97831.25;3154523;23;20022;-92
2023/12/06 04:08:31;;;;;;;56.65;23.67;;;;;;;-4.51;100.00;97837.88;3140627;23;20022;-93
2023/12/06 04:09:47;;;;;;;54.25;22.42;;;;;;;-4.27;100.00;97836.69;3140824;23;20026;-95
2023/12/06 04:11:04;;;;;;;52.58;21.33;;;;;;;-4.44;100.00;97823.53;3140472;23;20054;-93
2023/12/06 04:12:20;;;;;;;53.10;21.77;;;;;;;-4.68;100.00;97828.13;3141008;23;20070;-93
2023/12/06 04:13:36;;;;;;;46.63;19.73;;;;;;;-4.76;100.00;97821.13;3141082;23;20023;-93
2023/12/06 04:14:53;;;;;;;52.60;21.58;;;;;;;-4.56;100.00;97830.09;3141388;23;20037;-95
2023/12/06 04:16:09;;;;;;;56.45;20.15;;;;;;;-4.37;100.00;97829.63;3149514;23;20442;-93
2023/12/06 04:17:25;;;;;;;56.03;22.17;;;;;;;-4.20;100.00;97824.91;3156356;23;20046;-94
2023/12/06 04:18:41;;;;;;;57.47;21.90;;;;;;;-4.14;100.00;97836.09;3134293;23;20015;-93
2023/12/06 04:19:56;;;;;;;52.80;22.02;;;;;;;-4.16;100.00;97830.09;3145287;23;20033;-93
2023/12/06 04:21:12;;;;;;;50.33;19.10;;;;;;;-4.27;100.00;97831.56;3126212;23;20066;-93
2023/12/06 04:22:27;;;;;;;47.53;19.40;;;;;;;-4.50;100.00;97842.13;3136625;23;20478;-95
2023/12/06 04:23:43;;;;;;;52.80;20.00;;;;;;;-4.22;100.00;97842.75;3148644;23;20018;-96
2023/12/06 04:24:59;;;;;;;60.03;21.95;;;;;;;-4.05;100.00;97840.53;3139475;23;20026;-94
2023/12/06 04:26:15;;;;;;;61.25;21.00;;;;;;;-4.02;100.00;97840.59;3144646;23;20022;-94
2023/12/06 04:27:30;;;;;;;50.20;21.50;;;;;;;-3.99;100.00;97839.81;3139991;23;20014;-93
2023/12/06 04:28:46;;;;;;;49.60;19.85;;;;;;;-3.95;100.00;97840.75;3140115;23;20022;-93
2023/12/06 04:30:02;;;;;;;53.15;21.00;;;;;;;-3.89;100.00;97841.72;3140073;23;20762;-93
2023/12/06 04:31:18;;;;;;;44.00;18.48;;;;;;;-3.86;100.00;97846.91;3145190;23;20037;-94
2023/12/06 04:32:34;;;;;;;49.70;21.08;;;;;;;-3.83;100.00;97848.66;3142214;23;20030;-96
2023/12/06 04:33:50;;;;;;;49.20;20.52;;;;;;;-3.90;100.00;97842.56;3150382;23;20012;-94
2023/12/06 04:35:06;;;;;;;55.35;22.30;;;;;;;-3.88;100.00;97845.13;3158565;23;20018;-94
2023/12/06 04:36:22;;;;;;;58.63;22.40;;;;;;;-3.86;100.00;97846.91;3157515;23;20027;-94
2023/12/06 04:37:37;;;;;;;60.25;23.52;;;;;;;-3.81;100.00;97843.56;3145873;23;20486;-93
2023/12/06 04:38:53;;;;;;;53.58;22.33;;;;;;;-3.78;100.00;97847.03;3140984;23;20081;-92
2023/12/06 04:40:09;;;;;;;58.33;22.48;;;;;;;-3.77;100.00;97850.44;3144841;23;20034;-92
2023/12/06 04:41:24;;;;;;;58.13;22.38;;;;;;;-3.89;100.00;97851.06;3124793;23;20379;-93
2023/12/06 04:42:40;;;;;;;56.47;22.58;;;;;;;-3.89;100.00;97857.06;3135742;23;20379;-93
2023/12/06 04:43:56;;;;;;;60.15;21.70;;;;;;;-3.83;100.00;97852.06;3144858;23;20042;-93
2023/12/06 04:45:17;;;;;;;53.22;23.40;;;;;;;-3.77;100.00;97853.00;3155179;23;20041;-94
2023/12/06 04:46:35;;;;;;;51.17;22.80;;;;;;;-3.67;100.00;97856.63;3153523;23;20050;-92
2023/12/06 04:47:51;;;;;;;53.60;23.42;;;;;;;-3.66;100.00;97854.09;3140530;23;20031;-93
2023/12/06 04:49:06;;;;;;;56.95;23.30;;;;;;;-3.73;100.00;97867.59;3139690;23;20031;-95
2023/12/06 04:50:22;;;;;;;58.35;22.65;;;;;;;-3.73;100.00;97862.50;3139296;23;20030;-93
2023/12/06 04:51:38;;;;;;;62.92;26.85;;;;;;;-3.58;100.00;97861.91;3144645;23;20026;-93
2023/12/06 04:52:54;;;;;;;73.75;31.65;;;;;;;-3.61;100.00;97857.59;3125600;23;20023;-92
2023/12/06 04:54:09;;;;;;;74.10;32.53;;;;;;;-3.48;100.00;97857.84;3131800;23;20022;-94
2023/12/06 04:55:27;;;;;;;68.82;28.35;;;;;;;-3.50;100.00;97849.25;3144803;23;20026;-92
2023/12/06 04:56:42;;;;;;;59.47;25.52;;;;;;;-3.52;100.00;97854.34;3144987;23;20086;-93
2023/12/06 04:57:57;;;;;;;66.35;27.40;;;;;;;-3.41;100.00;97851.97;3139581;23;20018;-93
2023/12/06 04:59:13;;;;;;;74.35;29.67;;;;;;;-3.37;100.00;97853.75;3159370;23;20124;-95
2023/12/06 05:00:30;;;;;;;60.80;24.73;;;;;;;-3.37;100.00;97847.78;3149535;23;20395;-94
2023/12/06 05:01:45;;;;;;;56.90;23.77;;;;;;;-3.34;100.00;97851.28;3146903;23;20050;-94
2023/12/06 05:03:01;;;;;;;58.95;23.20;;;;;;;-3.48;100.00;97852.72;3156378;23;20081;-95
2023/12/06 05:04:17;;;;;;;49.10;21.20;;;;;;;-3.41;100.00;97850.31;3150705;23;20023;-94
2023/12/06 05:05:33;;;;;;;70.50;29.20;;;;;;;-3.44;100.00;97851.94;3141685;23;20034;-94
2023/12/06 05:06:49;;;;;;;70.07;30.60;;;;;;;-3.46;100.00;97851.06;3141599;23;20026;-93
2023/12/06 05:08:05;;;;;;;59.67;24.92;;;;;;;-3.42;100.00;97851.13;3145997;23;20022;-93
2023/12/06 05:09:20;;;;;;;53.63;22.42;;;;;;;-3.48;100.00;97840.78;3141564;23;20054;-94
2023/12/06 05:10:36;;;;;;;53.08;22.52;;;;;;;-3.47;100.00;97834.81;3141507;23;20022;-94
2023/12/06 05:11:52;;;;;;;52.40;21.70;;;;;;;-3.59;100.00;97832.91;3146114;23;20179;-95
2023/12/06 05:13:08;;;;;;;54.85;21.17;;;;;;;-3.65;100.00;97837.03;3141261;23;20085;-94
2023/12/06 05:14:24;;;;;;;64.40;25.60;;;;;;;-3.44;100.00;97839.13;3163747;23;20029;-94
2023/12/06 05:15:41;;;;;;;52.22;22.30;;;;;;;-3.49;100.00;97825.38;3169653;23;20018;-94
2023/12/06 05:16:56;;;;;;;62.92;23.88;;;;;;;-3.40;100.00;97828.13;3150293;23;20485;-94
2023/12/06 05:18:12;;;;;;;57.42;22.65;;;;;;;-3.51;100.00;97827.06;3155573;23;20045;-94
2023/12/06 05:19:28;;;;;;;56.85;23.23;;;;;;;-3.72;100.00;97829.25;3149810;23;20026;-94
2023/12/06 05:20:43;;;;;;;55.42;22.23;;;;;;;-3.69;100.00;97825.88;3145750;23;20023;-93
2023/12/06 05:21:59;;;;;;;60.05;27.48;;;;;;;-3.56;100.00;97838.06;3141207;23;20033;-94
2023/12/06 05:23:16;;;;;;;53.42;24.20;;;;;;;-3.47;100.00;97822.03;3126455;23;20073;-95
2023/12/06 05:24:31;;;;;;;59.38;22.60;;;;;;;-3.42;100.00;97820.44;3136867;23;20022;-94
2023/12/06 05:25:47;;;;;;;52.75;22.83;;;;;;;-3.66;100.00;97825.09;3140875;23;20049;-96
2023/12/06 05:27:03;;;;;;;65.95;26.13;;;;;;;-3.58;100.00;97832.06;3140786;23;20022;-95
2023/12/06 05:28:19;;;;;;;62.30;26.27;;;;;;;-3.62;100.00;97824.31;3140743;23;20029;-94
2023/12/06 05:29:34;;;;;;;73.00;29.60;;;;;;;-3.53;100.00;97826.16;3145356;23;20168;-94
2023/12/06 05:30:50;;;;;;;59.13;23.73;;;;;;;-3.56;100.00;97835.50;3144898;23;20023;-95
2023/12/06 05:32:06;;;;;;;63.85;26.02;;;;;;;-3.49;100.00;97836.50;3140260;23;20019;-95
2023/12/06 05:33:24;;;;;;;60.80;25.75;;;;;;;-3.35;100.00;97829.06;3140454;23;20030;-93
2023/12/06 05:34:39;;;;;;;68.32;25.95;;;;;;;-3.20;100.00;97828.47;3146019;23;20073;-95
2023/12/06 05:35:57;;;;;;;63.65;26.42;;;;;;;-3.18;100.00;97836.19;3140199;23;20019;-95
2023/12/06 05:37:13;;;;;;;63.50;25.55;;;;;;;-3.15;100.00;97836.22;3140311;23;20010;-94
2023/12/06 05:38:29;;;;;;;61.13;24.02;;;;;;;-3.33;100.00;97837.63;3146006;23;20026;-94
2023/12/06 05:39:44;;;;;;;57.13;23.42;;;;;;;-3.32;100.00;97836.81;3145418;23;20041;-95
2023/12/06 05:41:00;;;;;;;59.33;25.15;;;;;;;-3.27;100.00;97837.72;3145428;23;20162;-94
2023/12/06 05:42:16;;;;;;;60.40;24.42;;;;;;;-3.42;100.00;97842.59;3145362;23;20029;-94
2023/12/06 05:43:32;;;;;;;52.15;22.25;;;;;;;-3.49;100.00;97849.28;3125419;23;20464;-93
2023/12/06 05:44:48;;;;;;;67.50;24.50;;;;;;;-3.45;100.00;97840.81;3151511;23;20022;-93
2023/12/06 05:46:03;;;;;;;64.25;25.40;;;;;;;-3.47;100.00;97832.25;3134058;23;20019;-94